sensor_id;sensor_type;location;lat;lon;timestamp;P1;durP1;ratioP1;P2;durP2;ratioP2
54815;SDS011;40715;55.752;37.884;2022-08-20T00:00:26;0.00;;;0.00;;
54815;SDS011;40715;55.752;37.884;2022-08-20T00:02:58;0.00;;;0.00;;
54815;SDS011;40715;55.752;37.884;2022-08-20T00:05:32;0.00;;;0.00;;
54815;SDS011;40715;55.752;37.884;2022-08-20T00:08:04;0.00;;;0.00;;
54815;SDS011;40715;55.752;37.884;2022-08-20T00:10:33;0.00;;;0.00;;
54815;SDS011;40715;55.752;37.884;2022-08-20T00:13:04;0.00;;;0.00;;
54815;SDS011;40715;55.752;37.884;2022-08-20T00:15:34;0.05;;;0.00;;
54815;SDS011;40715;55.752;37.884;2022-08-20T00:18:02;0.00;;;0.00;;
54815;SDS011;40715;55.752;37.884;2022-08-20T00:20:31;0.00;;;0.00;;
54815;SDS011;40715;55.752;37.884;2022-08-20T00:23:02;0.00;;;0.00;;
54815;SDS011;40715;55.752;37.884;2022-08-20T00:25:35;0.00;;;0.00;;
54815;SDS011;40715;55.752;37.884;2022-08-20T00:28:02;0.00;;;0.00;;
54815;SDS011;40715;55.752;37.884;2022-08-20T00:30:29;0.00;;;0.00;;
54815;SDS011;40715;55.752;37.884;2022-08-20T00:32:59;0.00;;;0.00;;
54815;SDS011;40715;55.752;37.884;2022-08-20T00:35:34;0.00;;;0.00;;
54815;SDS011;40715;55.752;37.884;2022-08-20T00:38:03;0.00;;;0.00;;
54815;SDS011;40715;55.752;37.884;2022-08-20T00:40:35;0.00;;;0.00;;
54815;SDS011;40715;55.752;37.884;2022-08-20T00:43:06;0.00;;;0.00;;
54815;SDS011;40715;55.752;37.884;2022-08-20T00:45:49;0.00;;;0.00;;
54815;SDS011;40715;55.752;37.884;2022-08-20T00:48:21;0.00;;;0.00;;
54815;SDS011;40715;55.752;37.884;2022-08-20T00:50:52;0.00;;;0.00;;
54815;SDS011;40715;55.752;37.884;2022-08-20T00:53:24;0.00;;;0.00;;
54815;SDS011;40715;55.752;37.884;2022-08-20T00:55:52;0.00;;;0.00;;
54815;SDS011;40715;55.752;37.884;2022-08-20T00:58:20;0.00;;;0.00;;
54815;SDS011;40715;55.752;37.884;2022-08-20T01:00:47;0.00;;;0.00;;
54815;SDS011;40715;55.752;37.884;2022-08-20T01:03:15;0.00;;;0.00;;
54815;SDS011;40715;55.752;37.884;2022-08-20T01:05:47;0.00;;;0.00;;
54815;SDS011;40715;55.752;37.884;2022-08-20T01:08:16;0.00;;;0.00;;
54815;SDS011;40715;55.752;37.884;2022-08-20T01:10:46;0.00;;;0.00;;
54815;SDS011;40715;55.752;37.884;2022-08-20T01:13:17;0.03;;;0.00;;
54815;SDS011;40715;55.752;37.884;2022-08-20T01:15:48;0.00;;;0.00;;
54815;SDS011;40715;55.752;37.884;2022-08-20T01:18:18;0.00;;;0.00;;
54815;SDS011;40715;55.752;37.884;2022-08-20T01:20:54;0.00;;;0.00;;
54815;SDS011;40715;55.752;37.884;2022-08-20T01:23:34;0.00;;;0.00;;
54815;SDS011;40715;55.752;37.884;2022-08-20T01:26:23;0.00;;;0.00;;
54815;SDS011;40715;55.752;37.884;2022-08-20T01:28:55;0.00;;;0.00;;
54815;SDS011;40715;55.752;37.884;2022-08-20T01:31:31;0.00;;;0.00;;
54815;SDS011;40715;55.752;37.884;2022-08-20T01:34:02;0.00;;;0.00;;
54815;SDS011;40715;55.752;37.884;2022-08-20T01:36:36;0.00;;;0.00;;
54815;SDS011;40715;55.752;37.884;2022-08-20T01:39:12;0.00;;;0.00;;
54815;SDS011;40715;55.752;37.884;2022-08-20T01:41:54;0.00;;;0.00;;
54815;SDS011;40715;55.752;37.884;2022-08-20T01:44:38;0.00;;;0.00;;
54815;SDS011;40715;55.752;37.884;2022-08-20T01:47:12;0.00;;;0.00;;
54815;SDS011;40715;55.752;37.884;2022-08-20T01:49:43;0.00;;;0.00;;
54815;SDS011;40715;55.752;37.884;2022-08-20T01:52:23;0.28;;;0.00;;
54815;SDS011;40715;55.752;37.884;2022-08-20T01:54:52;0.00;;;0.00;;
54815;SDS011;40715;55.752;37.884;2022-08-20T01:57:20;0.00;;;0.00;;
54815;SDS011;40715;55.752;37.884;2022-08-20T01:59:51;0.00;;;0.00;;
54815;SDS011;40715;55.752;37.884;2022-08-20T02:02:19;0.00;;;0.00;;
54815;SDS011;40715;55.752;37.884;2022-08-20T02:04:46;0.00;;;0.00;;
54815;SDS011;40715;55.752;37.884;2022-08-20T02:07:15;0.00;;;0.00;;
54815;SDS011;40715;55.752;37.884;2022-08-20T02:09:45;0.00;;;0.00;;
54815;SDS011;40715;55.752;37.884;2022-08-20T02:12:14;0.00;;;0.00;;
54815;SDS011;40715;55.752;37.884;2022-08-20T02:14:44;0.00;;;0.00;;
54815;SDS011;40715;55.752;37.884;2022-08-20T02:17:14;0.00;;;0.00;;
54815;SDS011;40715;55.752;37.884;2022-08-20T02:19:43;0.00;;;0.00;;
54815;SDS011;40715;55.752;37.884;2022-08-20T02:22:23;0.00;;;0.00;;
54815;SDS011;40715;55.752;37.884;2022-08-20T02:24:52;0.00;;;0.00;;
54815;SDS011;40715;55.752;37.884;2022-08-20T02:27:19;0.00;;;0.00;;
54815;SDS011;40715;55.752;37.884;2022-08-20T02:29:47;0.00;;;0.00;;
54815;SDS011;40715;55.752;37.884;2022-08-20T02:32:13;0.10;;;0.00;;
54815;SDS011;40715;55.752;37.884;2022-08-20T02:34:50;0.00;;;0.00;;
54815;SDS011;40715;55.752;37.884;2022-08-20T02:37:17;0.00;;;0.00;;
54815;SDS011;40715;55.752;37.884;2022-08-20T02:39:45;0.00;;;0.00;;
54815;SDS011;40715;55.752;37.884;2022-08-20T02:42:12;0.00;;;0.00;;
54815;SDS011;40715;55.752;37.884;2022-08-20T02:44:39;0.00;;;0.00;;
54815;SDS011;40715;55.752;37.884;2022-08-20T02:47:06;0.05;;;0.00;;
54815;SDS011;40715;55.752;37.884;2022-08-20T02:49:33;0.10;;;0.00;;
54815;SDS011;40715;55.752;37.884;2022-08-20T02:52:00;0.05;;;0.00;;
54815;SDS011;40715;55.752;37.884;2022-08-20T02:54:27;0.00;;;0.00;;
54815;SDS011;40715;55.752;37.884;2022-08-20T02:56:54;0.03;;;0.00;;
54815;SDS011;40715;55.752;37.884;2022-08-20T02:59:22;0.00;;;0.00;;
54815;SDS011;40715;55.752;37.884;2022-08-20T03:01:49;0.00;;;0.00;;
54815;SDS011;40715;55.752;37.884;2022-08-20T03:04:24;0.00;;;0.00;;
54815;SDS011;40715;55.752;37.884;2022-08-20T03:06:51;0.00;;;0.00;;
54815;SDS011;40715;55.752;37.884;2022-08-20T03:09:18;0.08;;;0.00;;
54815;SDS011;40715;55.752;37.884;2022-08-20T03:11:45;0.00;;;0.00;;
54815;SDS011;40715;55.752;37.884;2022-08-20T03:14:12;0.00;;;0.00;;
54815;SDS011;40715;55.752;37.884;2022-08-20T03:16:38;0.10;;;0.00;;
54815;SDS011;40715;55.752;37.884;2022-08-20T03:19:05;0.05;;;0.00;;
54815;SDS011;40715;55.752;37.884;2022-08-20T03:21:32;0.05;;;0.00;;
54815;SDS011;40715;55.752;37.884;2022-08-20T03:24:00;0.00;;;0.00;;
54815;SDS011;40715;55.752;37.884;2022-08-20T03:26:27;0.00;;;0.00;;
54815;SDS011;40715;55.752;37.884;2022-08-20T03:28:54;0.00;;;0.00;;
54815;SDS011;40715;55.752;37.884;2022-08-20T03:31:21;0.00;;;0.00;;
54815;SDS011;40715;55.752;37.884;2022-08-20T03:33:48;0.00;;;0.00;;
54815;SDS011;40715;55.752;37.884;2022-08-20T03:36:19;0.65;;;0.00;;
54815;SDS011;40715;55.752;37.884;2022-08-20T03:38:53;0.00;;;0.00;;
54815;SDS011;40715;55.752;37.884;2022-08-20T03:41:24;0.00;;;0.00;;
54815;SDS011;40715;55.752;37.884;2022-08-20T03:43:51;0.00;;;0.00;;
54815;SDS011;40715;55.752;37.884;2022-08-20T03:46:18;0.00;;;0.00;;
54815;SDS011;40715;55.752;37.884;2022-08-20T03:48:47;0.00;;;0.00;;
54815;SDS011;40715;55.752;37.884;2022-08-20T03:51:14;0.22;;;0.00;;
54815;SDS011;40715;55.752;37.884;2022-08-20T03:53:41;0.00;;;0.00;;
54815;SDS011;40715;55.752;37.884;2022-08-20T03:56:08;0.05;;;0.05;;
54815;SDS011;40715;55.752;37.884;2022-08-20T03:58:35;0.08;;;0.08;;
54815;SDS011;40715;55.752;37.884;2022-08-20T04:01:03;0.00;;;0.00;;
54815;SDS011;40715;55.752;37.884;2022-08-20T04:03:32;0.10;;;0.10;;
54815;SDS011;40715;55.752;37.884;2022-08-20T04:05:59;0.10;;;0.10;;
54815;SDS011;40715;55.752;37.884;2022-08-20T04:08:27;0.08;;;0.08;;
54815;SDS011;40715;55.752;37.884;2022-08-20T04:10:55;0.10;;;0.10;;
54815;SDS011;40715;55.752;37.884;2022-08-20T04:13:23;0.10;;;0.10;;
54815;SDS011;40715;55.752;37.884;2022-08-20T04:15:51;0.10;;;0.10;;
54815;SDS011;40715;55.752;37.884;2022-08-20T04:18:21;0.10;;;0.10;;
54815;SDS011;40715;55.752;37.884;2022-08-20T04:20:51;0.10;;;0.10;;
54815;SDS011;40715;55.752;37.884;2022-08-20T04:23:19;0.10;;;0.10;;
54815;SDS011;40715;55.752;37.884;2022-08-20T04:25:47;0.10;;;0.10;;
54815;SDS011;40715;55.752;37.884;2022-08-20T04:28:16;0.20;;;0.20;;
54815;SDS011;40715;55.752;37.884;2022-08-20T04:30:54;0.10;;;0.10;;
54815;SDS011;40715;55.752;37.884;2022-08-20T04:33:24;0.20;;;0.20;;
54815;SDS011;40715;55.752;37.884;2022-08-20T04:35:59;0.20;;;0.20;;
54815;SDS011;40715;55.752;37.884;2022-08-20T04:38:28;0.20;;;0.20;;
54815;SDS011;40715;55.752;37.884;2022-08-20T04:41:13;0.20;;;0.20;;
54815;SDS011;40715;55.752;37.884;2022-08-20T04:43:46;0.20;;;0.20;;
54815;SDS011;40715;55.752;37.884;2022-08-20T04:46:13;0.20;;;0.20;;
54815;SDS011;40715;55.752;37.884;2022-08-20T04:48:40;0.25;;;0.25;;
54815;SDS011;40715;55.752;37.884;2022-08-20T04:51:08;0.20;;;0.20;;
54815;SDS011;40715;55.752;37.884;2022-08-20T04:53:35;0.20;;;0.20;;
54815;SDS011;40715;55.752;37.884;2022-08-20T04:56:03;0.20;;;0.20;;
54815;SDS011;40715;55.752;37.884;2022-08-20T04:58:31;0.20;;;0.20;;
54815;SDS011;40715;55.752;37.884;2022-08-20T05:01:02;0.25;;;0.25;;
54815;SDS011;40715;55.752;37.884;2022-08-20T05:03:31;0.30;;;0.30;;
54815;SDS011;40715;55.752;37.884;2022-08-20T05:05:58;0.30;;;0.30;;
54815;SDS011;40715;55.752;37.884;2022-08-20T05:08:27;0.30;;;0.30;;
54815;SDS011;40715;55.752;37.884;2022-08-20T05:10:54;0.20;;;0.20;;
54815;SDS011;40715;55.752;37.884;2022-08-20T05:13:32;0.20;;;0.20;;
54815;SDS011;40715;55.752;37.884;2022-08-20T05:15:59;0.30;;;0.30;;
54815;SDS011;40715;55.752;37.884;2022-08-20T05:18:27;0.10;;;0.10;;
54815;SDS011;40715;55.752;37.884;2022-08-20T05:20:57;0.10;;;0.10;;
54815;SDS011;40715;55.752;37.884;2022-08-20T05:23:29;0.03;;;0.03;;
54815;SDS011;40715;55.752;37.884;2022-08-20T05:25:57;0.10;;;0.10;;
54815;SDS011;40715;55.752;37.884;2022-08-20T05:28:25;0.15;;;0.10;;
54815;SDS011;40715;55.752;37.884;2022-08-20T05:30:59;0.00;;;0.00;;
54815;SDS011;40715;55.752;37.884;2022-08-20T05:33:28;0.10;;;0.10;;
54815;SDS011;40715;55.752;37.884;2022-08-20T05:35:55;0.00;;;0.00;;
54815;SDS011;40715;55.752;37.884;2022-08-20T05:38:24;0.00;;;0.00;;
54815;SDS011;40715;55.752;37.884;2022-08-20T05:40:53;0.00;;;0.00;;
54815;SDS011;40715;55.752;37.884;2022-08-20T05:43:20;0.00;;;0.00;;
54815;SDS011;40715;55.752;37.884;2022-08-20T05:45:47;0.15;;;0.00;;
54815;SDS011;40715;55.752;37.884;2022-08-20T05:48:22;0.00;;;0.00;;
54815;SDS011;40715;55.752;37.884;2022-08-20T05:50:51;0.00;;;0.00;;
54815;SDS011;40715;55.752;37.884;2022-08-20T05:53:20;0.00;;;0.00;;
54815;SDS011;40715;55.752;37.884;2022-08-20T05:55:49;0.00;;;0.00;;
54815;SDS011;40715;55.752;37.884;2022-08-20T05:58:18;0.00;;;0.00;;
54815;SDS011;40715;55.752;37.884;2022-08-20T06:00:48;0.00;;;0.00;;
54815;SDS011;40715;55.752;37.884;2022-08-20T06:03:16;0.00;;;0.00;;
54815;SDS011;40715;55.752;37.884;2022-08-20T06:06:02;0.00;;;0.00;;
54815;SDS011;40715;55.752;37.884;2022-08-20T06:08:30;0.00;;;0.00;;
54815;SDS011;40715;55.752;37.884;2022-08-20T06:10:57;0.00;;;0.00;;
54815;SDS011;40715;55.752;37.884;2022-08-20T06:13:24;0.00;;;0.00;;
54815;SDS011;40715;55.752;37.884;2022-08-20T06:15:52;0.00;;;0.00;;
54815;SDS011;40715;55.752;37.884;2022-08-20T06:18:19;0.00;;;0.00;;
54815;SDS011;40715;55.752;37.884;2022-08-20T06:20:53;0.00;;;0.00;;
54815;SDS011;40715;55.752;37.884;2022-08-20T06:23:22;0.00;;;0.00;;
54815;SDS011;40715;55.752;37.884;2022-08-20T06:25:50;0.00;;;0.00;;
54815;SDS011;40715;55.752;37.884;2022-08-20T06:28:17;0.00;;;0.00;;
54815;SDS011;40715;55.752;37.884;2022-08-20T06:30:45;0.00;;;0.00;;
54815;SDS011;40715;55.752;37.884;2022-08-20T06:33:12;0.00;;;0.00;;
54815;SDS011;40715;55.752;37.884;2022-08-20T06:35:39;0.00;;;0.00;;
54815;SDS011;40715;55.752;37.884;2022-08-20T06:38:08;0.00;;;0.00;;
54815;SDS011;40715;55.752;37.884;2022-08-20T06:40:36;0.00;;;0.00;;
54815;SDS011;40715;55.752;37.884;2022-08-20T06:43:04;0.00;;;0.00;;
54815;SDS011;40715;55.752;37.884;2022-08-20T06:45:35;0.00;;;0.00;;
54815;SDS011;40715;55.752;37.884;2022-08-20T06:48:08;0.00;;;0.00;;
54815;SDS011;40715;55.752;37.884;2022-08-20T06:50:37;0.00;;;0.00;;
54815;SDS011;40715;55.752;37.884;2022-08-20T06:53:13;0.00;;;0.00;;
54815;SDS011;40715;55.752;37.884;2022-08-20T06:55:43;0.00;;;0.00;;
54815;SDS011;40715;55.752;37.884;2022-08-20T06:58:14;0.00;;;0.00;;
54815;SDS011;40715;55.752;37.884;2022-08-20T07:01:01;0.00;;;0.00;;
54815;SDS011;40715;55.752;37.884;2022-08-20T07:03:35;0.00;;;0.00;;
54815;SDS011;40715;55.752;37.884;2022-08-20T07:06:03;0.00;;;0.00;;
54815;SDS011;40715;55.752;37.884;2022-08-20T07:08:31;0.00;;;0.00;;
54815;SDS011;40715;55.752;37.884;2022-08-20T07:10:58;0.00;;;0.00;;
54815;SDS011;40715;55.752;37.884;2022-08-20T07:13:25;0.00;;;0.00;;
54815;SDS011;40715;55.752;37.884;2022-08-20T07:15:53;0.00;;;0.00;;
54815;SDS011;40715;55.752;37.884;2022-08-20T07:18:21;0.00;;;0.00;;
54815;SDS011;40715;55.752;37.884;2022-08-20T07:20:53;0.00;;;0.00;;
54815;SDS011;40715;55.752;37.884;2022-08-20T07:23:24;0.00;;;0.00;;
54815;SDS011;40715;55.752;37.884;2022-08-20T07:25:52;0.13;;;0.00;;
54815;SDS011;40715;55.752;37.884;2022-08-20T07:28:22;0.20;;;0.00;;
54815;SDS011;40715;55.752;37.884;2022-08-20T07:30:51;0.00;;;0.00;;
54815;SDS011;40715;55.752;37.884;2022-08-20T07:33:37;0.00;;;0.00;;
54815;SDS011;40715;55.752;37.884;2022-08-20T07:36:06;0.00;;;0.00;;
54815;SDS011;40715;55.752;37.884;2022-08-20T07:38:34;0.00;;;0.00;;
54815;SDS011;40715;55.752;37.884;2022-08-20T07:41:03;0.10;;;0.00;;
54815;SDS011;40715;55.752;37.884;2022-08-20T07:43:33;0.00;;;0.00;;
54815;SDS011;40715;55.752;37.884;2022-08-20T07:46:01;0.00;;;0.00;;
54815;SDS011;40715;55.752;37.884;2022-08-20T07:48:32;0.00;;;0.00;;
54815;SDS011;40715;55.752;37.884;2022-08-20T07:51:02;0.00;;;0.00;;
54815;SDS011;40715;55.752;37.884;2022-08-20T07:53:31;0.10;;;0.10;;
54815;SDS011;40715;55.752;37.884;2022-08-20T07:56:02;0.20;;;0.10;;
54815;SDS011;40715;55.752;37.884;2022-08-20T07:58:31;0.10;;;0.10;;
54815;SDS011;40715;55.752;37.884;2022-08-20T08:01:01;0.08;;;0.08;;
54815;SDS011;40715;55.752;37.884;2022-08-20T08:03:29;0.10;;;0.10;;
54815;SDS011;40715;55.752;37.884;2022-08-20T08:06:05;0.10;;;0.10;;
54815;SDS011;40715;55.752;37.884;2022-08-20T08:08:32;0.10;;;0.10;;
54815;SDS011;40715;55.752;37.884;2022-08-20T08:10:59;0.10;;;0.10;;
54815;SDS011;40715;55.752;37.884;2022-08-20T08:13:30;0.10;;;0.10;;
54815;SDS011;40715;55.752;37.884;2022-08-20T08:16:01;0.13;;;0.13;;
54815;SDS011;40715;55.752;37.884;2022-08-20T08:18:33;0.20;;;0.20;;
54815;SDS011;40715;55.752;37.884;2022-08-20T08:21:04;0.30;;;0.30;;
54815;SDS011;40715;55.752;37.884;2022-08-20T08:23:32;0.25;;;0.25;;
54815;SDS011;40715;55.752;37.884;2022-08-20T08:26:00;0.32;;;0.32;;
54815;SDS011;40715;55.752;37.884;2022-08-20T08:28:27;0.32;;;0.32;;
54815;SDS011;40715;55.752;37.884;2022-08-20T08:30:55;0.20;;;0.20;;
54815;SDS011;40715;55.752;37.884;2022-08-20T08:33:25;0.25;;;0.25;;
54815;SDS011;40715;55.752;37.884;2022-08-20T08:35:54;0.20;;;0.20;;
54815;SDS011;40715;55.752;37.884;2022-08-20T08:38:22;0.10;;;0.10;;
54815;SDS011;40715;55.752;37.884;2022-08-20T08:40:52;0.10;;;0.10;;
54815;SDS011;40715;55.752;37.884;2022-08-20T08:43:23;0.00;;;0.00;;
54815;SDS011;40715;55.752;37.884;2022-08-20T08:46:00;0.00;;;0.00;;
54815;SDS011;40715;55.752;37.884;2022-08-20T08:48:31;0.00;;;0.00;;
54815;SDS011;40715;55.752;37.884;2022-08-20T08:51:05;0.00;;;0.00;;
54815;SDS011;40715;55.752;37.884;2022-08-20T08:53:42;0.00;;;0.00;;
54815;SDS011;40715;55.752;37.884;2022-08-20T08:56:16;0.60;;;0.00;;
54815;SDS011;40715;55.752;37.884;2022-08-20T08:58:43;0.00;;;0.00;;
54815;SDS011;40715;55.752;37.884;2022-08-20T09:01:16;0.00;;;0.00;;
54815;SDS011;40715;55.752;37.884;2022-08-20T09:04:05;0.00;;;0.00;;
54815;SDS011;40715;55.752;37.884;2022-08-20T09:06:33;0.00;;;0.00;;
54815;SDS011;40715;55.752;37.884;2022-08-20T09:09:02;0.00;;;0.00;;
54815;SDS011;40715;55.752;37.884;2022-08-20T09:11:35;0.00;;;0.00;;
54815;SDS011;40715;55.752;37.884;2022-08-20T09:14:14;0.00;;;0.00;;
54815;SDS011;40715;55.752;37.884;2022-08-20T09:16:41;0.00;;;0.00;;
54815;SDS011;40715;55.752;37.884;2022-08-20T09:19:18;0.00;;;0.00;;
54815;SDS011;40715;55.752;37.884;2022-08-20T09:21:46;0.00;;;0.00;;
54815;SDS011;40715;55.752;37.884;2022-08-20T09:24:14;0.00;;;0.00;;
54815;SDS011;40715;55.752;37.884;2022-08-20T09:26:41;0.00;;;0.00;;
54815;SDS011;40715;55.752;37.884;2022-08-20T09:29:09;0.00;;;0.00;;
54815;SDS011;40715;55.752;37.884;2022-08-20T09:31:36;0.00;;;0.00;;
54815;SDS011;40715;55.752;37.884;2022-08-20T09:34:04;0.00;;;0.00;;
54815;SDS011;40715;55.752;37.884;2022-08-20T09:36:31;0.00;;;0.00;;
54815;SDS011;40715;55.752;37.884;2022-08-20T09:38:58;0.00;;;0.00;;
54815;SDS011;40715;55.752;37.884;2022-08-20T09:41:28;0.00;;;0.00;;
54815;SDS011;40715;55.752;37.884;2022-08-20T09:43:55;0.00;;;0.00;;
54815;SDS011;40715;55.752;37.884;2022-08-20T09:46:22;0.00;;;0.00;;
54815;SDS011;40715;55.752;37.884;2022-08-20T09:48:52;0.00;;;0.00;;
54815;SDS011;40715;55.752;37.884;2022-08-20T09:51:19;0.00;;;0.00;;
54815;SDS011;40715;55.752;37.884;2022-08-20T09:53:46;0.10;;;0.00;;
54815;SDS011;40715;55.752;37.884;2022-08-20T09:56:14;0.00;;;0.00;;
54815;SDS011;40715;55.752;37.884;2022-08-20T10:01:17;0.00;;;0.00;;
54815;SDS011;40715;55.752;37.884;2022-08-20T10:03:45;0.00;;;0.00;;
54815;SDS011;40715;55.752;37.884;2022-08-20T10:06:15;0.00;;;0.00;;
54815;SDS011;40715;55.752;37.884;2022-08-20T10:08:45;0.00;;;0.00;;
54815;SDS011;40715;55.752;37.884;2022-08-20T10:11:13;0.00;;;0.00;;
54815;SDS011;40715;55.752;37.884;2022-08-20T10:13:40;0.00;;;0.00;;
54815;SDS011;40715;55.752;37.884;2022-08-20T10:16:07;0.00;;;0.00;;
54815;SDS011;40715;55.752;37.884;2022-08-20T10:18:34;0.00;;;0.00;;
54815;SDS011;40715;55.752;37.884;2022-08-20T10:21:02;0.00;;;0.00;;
54815;SDS011;40715;55.752;37.884;2022-08-20T10:23:33;0.00;;;0.00;;
54815;SDS011;40715;55.752;37.884;2022-08-20T10:26:00;0.00;;;0.00;;
54815;SDS011;40715;55.752;37.884;2022-08-20T10:28:27;0.00;;;0.00;;
54815;SDS011;40715;55.752;37.884;2022-08-20T10:30:54;0.00;;;0.00;;
54815;SDS011;40715;55.752;37.884;2022-08-20T10:33:21;0.00;;;0.00;;
54815;SDS011;40715;55.752;37.884;2022-08-20T10:35:48;0.00;;;0.00;;
54815;SDS011;40715;55.752;37.884;2022-08-20T10:38:15;0.00;;;0.00;;
54815;SDS011;40715;55.752;37.884;2022-08-20T10:40:42;0.00;;;0.00;;
54815;SDS011;40715;55.752;37.884;2022-08-20T10:43:09;0.00;;;0.00;;
54815;SDS011;40715;55.752;37.884;2022-08-20T10:45:36;0.00;;;0.00;;
54815;SDS011;40715;55.752;37.884;2022-08-20T10:48:03;0.00;;;0.00;;
54815;SDS011;40715;55.752;37.884;2022-08-20T10:50:32;0.00;;;0.00;;
54815;SDS011;40715;55.752;37.884;2022-08-20T10:52:59;0.00;;;0.00;;
54815;SDS011;40715;55.752;37.884;2022-08-20T10:55:26;0.00;;;0.00;;
54815;SDS011;40715;55.752;37.884;2022-08-20T10:57:53;0.00;;;0.00;;
54815;SDS011;40715;55.752;37.884;2022-08-20T11:00:20;0.00;;;0.00;;
54815;SDS011;40715;55.752;37.884;2022-08-20T11:02:48;0.00;;;0.00;;
54815;SDS011;40715;55.752;37.884;2022-08-20T11:05:15;0.00;;;0.00;;
54815;SDS011;40715;55.752;37.884;2022-08-20T11:07:43;0.00;;;0.00;;
54815;SDS011;40715;55.752;37.884;2022-08-20T11:10:15;0.00;;;0.00;;
54815;SDS011;40715;55.752;37.884;2022-08-20T11:12:43;0.00;;;0.00;;
54815;SDS011;40715;55.752;37.884;2022-08-20T11:15:10;0.00;;;0.00;;
54815;SDS011;40715;55.752;37.884;2022-08-20T11:17:39;0.00;;;0.00;;
54815;SDS011;40715;55.752;37.884;2022-08-20T11:20:07;0.00;;;0.00;;
54815;SDS011;40715;55.752;37.884;2022-08-20T11:22:36;0.00;;;0.00;;
54815;SDS011;40715;55.752;37.884;2022-08-20T11:25:03;0.00;;;0.00;;
54815;SDS011;40715;55.752;37.884;2022-08-20T11:27:33;0.00;;;0.00;;
54815;SDS011;40715;55.752;37.884;2022-08-20T11:30:05;0.00;;;0.00;;
54815;SDS011;40715;55.752;37.884;2022-08-20T11:32:35;0.00;;;0.00;;
54815;SDS011;40715;55.752;37.884;2022-08-20T11:35:02;0.00;;;0.00;;
54815;SDS011;40715;55.752;37.884;2022-08-20T11:37:50;0.00;;;0.00;;
54815;SDS011;40715;55.752;37.884;2022-08-20T11:40:19;0.00;;;0.00;;
54815;SDS011;40715;55.752;37.884;2022-08-20T11:42:46;0.00;;;0.00;;
54815;SDS011;40715;55.752;37.884;2022-08-20T11:45:33;0.00;;;0.00;;
54815;SDS011;40715;55.752;37.884;2022-08-20T11:48:02;0.00;;;0.00;;
54815;SDS011;40715;55.752;37.884;2022-08-20T11:50:30;0.00;;;0.00;;
54815;SDS011;40715;55.752;37.884;2022-08-20T11:52:57;0.00;;;0.00;;
54815;SDS011;40715;55.752;37.884;2022-08-20T11:55:24;0.00;;;0.00;;
54815;SDS011;40715;55.752;37.884;2022-08-20T11:57:53;0.00;;;0.00;;
54815;SDS011;40715;55.752;37.884;2022-08-20T12:00:21;0.00;;;0.00;;
54815;SDS011;40715;55.752;37.884;2022-08-20T12:02:54;0.00;;;0.00;;
54815;SDS011;40715;55.752;37.884;2022-08-20T12:05:21;0.00;;;0.00;;
54815;SDS011;40715;55.752;37.884;2022-08-20T12:07:48;0.00;;;0.00;;
54815;SDS011;40715;55.752;37.884;2022-08-20T12:10:15;0.00;;;0.00;;
54815;SDS011;40715;55.752;37.884;2022-08-20T12:12:42;0.00;;;0.00;;
54815;SDS011;40715;55.752;37.884;2022-08-20T12:15:09;0.00;;;0.00;;
54815;SDS011;40715;55.752;37.884;2022-08-20T12:17:36;0.00;;;0.00;;
54815;SDS011;40715;55.752;37.884;2022-08-20T12:20:07;0.00;;;0.00;;
54815;SDS011;40715;55.752;37.884;2022-08-20T12:22:36;0.00;;;0.00;;
54815;SDS011;40715;55.752;37.884;2022-08-20T12:25:03;0.00;;;0.00;;
54815;SDS011;40715;55.752;37.884;2022-08-20T12:27:32;0.00;;;0.00;;
54815;SDS011;40715;55.752;37.884;2022-08-20T12:30:01;0.00;;;0.00;;
54815;SDS011;40715;55.752;37.884;2022-08-20T12:32:34;0.00;;;0.00;;
54815;SDS011;40715;55.752;37.884;2022-08-20T12:35:03;0.00;;;0.00;;
54815;SDS011;40715;55.752;37.884;2022-08-20T12:37:30;0.00;;;0.00;;
54815;SDS011;40715;55.752;37.884;2022-08-20T12:39:59;0.00;;;0.00;;
54815;SDS011;40715;55.752;37.884;2022-08-20T12:42:28;0.00;;;0.00;;
54815;SDS011;40715;55.752;37.884;2022-08-20T12:44:56;0.00;;;0.00;;
54815;SDS011;40715;55.752;37.884;2022-08-20T12:47:25;0.10;;;0.00;;
54815;SDS011;40715;55.752;37.884;2022-08-20T12:49:59;0.00;;;0.00;;
54815;SDS011;40715;55.752;37.884;2022-08-20T12:52:29;0.00;;;0.00;;
54815;SDS011;40715;55.752;37.884;2022-08-20T12:54:56;0.00;;;0.00;;
54815;SDS011;40715;55.752;37.884;2022-08-20T12:57:34;0.00;;;0.00;;
54815;SDS011;40715;55.752;37.884;2022-08-20T13:00:12;0.00;;;0.00;;
54815;SDS011;40715;55.752;37.884;2022-08-20T13:02:46;0.00;;;0.00;;
54815;SDS011;40715;55.752;37.884;2022-08-20T13:05:14;0.00;;;0.00;;
54815;SDS011;40715;55.752;37.884;2022-08-20T13:07:42;0.00;;;0.00;;
54815;SDS011;40715;55.752;37.884;2022-08-20T13:10:11;0.00;;;0.00;;
54815;SDS011;40715;55.752;37.884;2022-08-20T13:12:41;0.00;;;0.00;;
54815;SDS011;40715;55.752;37.884;2022-08-20T13:15:08;0.00;;;0.00;;
54815;SDS011;40715;55.752;37.884;2022-08-20T13:17:35;0.00;;;0.00;;
54815;SDS011;40715;55.752;37.884;2022-08-20T13:20:05;0.00;;;0.00;;
54815;SDS011;40715;55.752;37.884;2022-08-20T13:22:34;0.00;;;0.00;;
54815;SDS011;40715;55.752;37.884;2022-08-20T13:25:02;0.00;;;0.00;;
54815;SDS011;40715;55.752;37.884;2022-08-20T13:27:30;0.00;;;0.00;;
54815;SDS011;40715;55.752;37.884;2022-08-20T13:29:57;0.00;;;0.00;;
54815;SDS011;40715;55.752;37.884;2022-08-20T13:32:24;0.00;;;0.00;;
54815;SDS011;40715;55.752;37.884;2022-08-20T13:34:52;0.00;;;0.00;;
54815;SDS011;40715;55.752;37.884;2022-08-20T13:37:23;0.00;;;0.00;;
54815;SDS011;40715;55.752;37.884;2022-08-20T13:39:52;0.00;;;0.00;;
54815;SDS011;40715;55.752;37.884;2022-08-20T13:42:19;0.00;;;0.00;;
54815;SDS011;40715;55.752;37.884;2022-08-20T13:44:46;0.00;;;0.00;;
54815;SDS011;40715;55.752;37.884;2022-08-20T13:47:15;0.00;;;0.00;;
54815;SDS011;40715;55.752;37.884;2022-08-20T13:49:43;0.00;;;0.00;;
54815;SDS011;40715;55.752;37.884;2022-08-20T13:52:11;0.00;;;0.00;;
54815;SDS011;40715;55.752;37.884;2022-08-20T13:54:38;0.00;;;0.00;;
54815;SDS011;40715;55.752;37.884;2022-08-20T13:57:12;0.00;;;0.00;;
54815;SDS011;40715;55.752;37.884;2022-08-20T13:59:41;0.00;;;0.00;;
54815;SDS011;40715;55.752;37.884;2022-08-20T14:02:09;0.00;;;0.00;;
54815;SDS011;40715;55.752;37.884;2022-08-20T14:04:37;0.00;;;0.00;;
54815;SDS011;40715;55.752;37.884;2022-08-20T14:07:11;0.00;;;0.00;;
54815;SDS011;40715;55.752;37.884;2022-08-20T14:09:40;0.00;;;0.00;;
54815;SDS011;40715;55.752;37.884;2022-08-20T14:12:09;0.00;;;0.00;;
54815;SDS011;40715;55.752;37.884;2022-08-20T14:14:36;0.00;;;0.00;;
54815;SDS011;40715;55.752;37.884;2022-08-20T14:19:51;0.00;;;0.00;;
54815;SDS011;40715;55.752;37.884;2022-08-20T14:22:26;0.00;;;0.00;;
54815;SDS011;40715;55.752;37.884;2022-08-20T14:24:53;0.00;;;0.00;;
54815;SDS011;40715;55.752;37.884;2022-08-20T14:27:22;0.00;;;0.00;;
54815;SDS011;40715;55.752;37.884;2022-08-20T14:29:54;0.00;;;0.00;;
54815;SDS011;40715;55.752;37.884;2022-08-20T14:32:21;0.00;;;0.00;;
54815;SDS011;40715;55.752;37.884;2022-08-20T14:34:48;0.00;;;0.00;;
54815;SDS011;40715;55.752;37.884;2022-08-20T14:37:18;0.00;;;0.00;;
54815;SDS011;40715;55.752;37.884;2022-08-20T14:39:51;0.00;;;0.00;;
54815;SDS011;40715;55.752;37.884;2022-08-20T14:42:20;0.00;;;0.00;;
54815;SDS011;40715;55.752;37.884;2022-08-20T14:44:49;0.00;;;0.00;;
54815;SDS011;40715;55.752;37.884;2022-08-20T14:49:48;0.00;;;0.00;;
54815;SDS011;40715;55.752;37.884;2022-08-20T14:52:16;0.00;;;0.00;;
54815;SDS011;40715;55.752;37.884;2022-08-20T14:54:45;0.00;;;0.00;;